createdAt,value
2023-02-11T00:02:34.749Z,66.56
2023-02-11T00:07:56.515Z,67.32
2023-02-11T00:13:18.246Z,67.89
2023-02-11T00:18:40.031Z,68.23
2023-02-11T00:24:02.324Z,68.55
2023-02-11T00:29:24.606Z,68.66
2023-02-11T00:34:46.389Z,68.70
2023-02-11T00:40:08.630Z,68.67
2023-02-11T00:45:30.721Z,68.64
2023-02-11T00:50:52.454Z,67.75
2023-02-11T00:56:14.254Z,68.44
2023-02-11T01:01:36.085Z,68.06
2023-02-11T01:06:57.835Z,68.49
2023-02-11T01:12:19.859Z,68.49
2023-02-11T01:17:42.140Z,69.18
2023-02-11T01:23:03.870Z,69.75
2023-02-11T01:28:29.297Z,69.40
2023-02-11T01:33:51.059Z,69.06
2023-02-11T01:39:12.852Z,69.51
2023-02-11T01:44:37.554Z,68.32
2023-02-11T01:50:02.228Z,67.70
2023-02-11T01:55:42.607Z,68.15
2023-02-11T02:01:05.829Z,68.64
2023-02-11T02:06:40.803Z,68.41
2023-02-11T02:12:02.565Z,69.93
2023-02-11T02:17:36.069Z,70.54
2023-02-11T02:23:10.054Z,70.41
2023-02-11T02:29:11.976Z,70.02
2023-02-11T02:35:13.165Z,70.41
2023-02-11T02:40:43.816Z,70.61
2023-02-11T02:46:17.242Z,70.34
2023-02-11T02:52:03.039Z,69.71
2023-02-11T02:58:04.286Z,70.33
2023-02-11T03:03:42.093Z,71.12
2023-02-11T03:09:14.379Z,70.47
2023-02-11T03:14:37.620Z,70.00
2023-02-11T03:20:01.086Z,69.86
2023-02-11T03:25:34.252Z,69.88
2023-02-11T03:31:14.560Z,69.56
2023-02-11T03:36:45.882Z,69.72
2023-02-11T03:42:10.666Z,68.98
2023-02-11T03:47:38.049Z,69.83
2023-02-11T03:53:02.639Z,69.72
2023-02-11T03:58:24.754Z,70.18
2023-02-11T04:03:46.474Z,70.49
2023-02-11T04:09:08.802Z,70.69
2023-02-11T04:14:30.545Z,69.97
2023-02-11T04:19:52.271Z,69.51
2023-02-11T04:25:14.053Z,69.99
2023-02-11T04:30:35.806Z,69.09
2023-02-11T04:35:57.570Z,69.57
2023-02-11T04:41:19.355Z,69.12
2023-02-11T04:46:41.131Z,68.60
2023-02-11T04:52:02.871Z,69.17
2023-02-11T04:57:24.664Z,68.95
2023-02-11T05:02:46.411Z,68.57
2023-02-11T05:08:09.209Z,69.02
2023-02-11T05:13:31.611Z,68.54
2023-02-11T05:18:55.408Z,68.78
2023-02-11T05:24:17.141Z,68.72
2023-02-11T05:29:40.002Z,69.31
2023-02-11T05:35:01.800Z,69.29
2023-02-11T05:40:23.582Z,68.68
2023-02-11T05:45:45.311Z,69.56
2023-02-11T05:51:07.046Z,69.47
2023-02-11T05:56:28.944Z,69.03
2023-02-11T06:01:50.900Z,69.29
2023-02-11T06:07:12.616Z,69.04
2023-02-11T06:12:35.683Z,69.22
2023-02-11T06:17:57.439Z,69.49
2023-02-11T06:23:19.252Z,68.73
2023-02-11T06:28:42.104Z,69.26
2023-02-11T06:34:04.969Z,69.07
2023-02-11T06:39:26.773Z,69.64
2023-02-11T06:44:48.482Z,69.60
2023-02-11T06:50:12.828Z,69.19
2023-02-11T06:55:35.269Z,69.15
2023-02-11T07:00:57.288Z,68.83
2023-02-11T07:06:21.851Z,68.48
2023-02-11T07:11:43.590Z,68.22
2023-02-11T07:17:05.336Z,69.26
2023-02-11T07:22:27.281Z,69.45
2023-02-11T07:27:50.113Z,69.68
2023-02-11T07:33:11.834Z,69.79
2023-02-11T07:38:34.811Z,69.70
2023-02-11T07:43:56.708Z,69.42
2023-02-11T07:49:18.499Z,69.36
2023-02-11T07:54:40.366Z,69.21
2023-02-11T08:00:02.612Z,68.93
2023-02-11T08:05:24.359Z,68.97
2023-02-11T08:10:46.074Z,69.66
2023-02-11T08:16:08.502Z,69.50
2023-02-11T08:21:30.655Z,68.24
2023-02-11T08:26:52.391Z,67.31
2023-02-11T08:32:14.197Z,66.58
2023-02-11T08:37:36.006Z,66.56
2023-02-11T08:42:57.814Z,67.18
2023-02-11T08:48:19.527Z,67.00
2023-02-11T08:53:41.338Z,67.09
2023-02-11T08:59:03.328Z,67.96
2023-02-11T09:04:25.144Z,68.11
2023-02-11T09:09:46.870Z,67.63
2023-02-11T09:15:09.045Z,66.51
2023-02-11T09:20:31.287Z,67.05
2023-02-11T09:25:53.117Z,67.14
2023-02-11T09:31:17.982Z,66.19
2023-02-11T09:36:41.126Z,64.98
2023-02-11T09:42:33.993Z,66.53
2023-02-11T09:48:00.304Z,66.77
2023-02-11T09:53:35.368Z,66.38
2023-02-11T09:58:57.117Z,66.17
2023-02-11T10:04:56.042Z,64.03
2023-02-11T10:10:35.313Z,64.16
2023-02-11T10:16:21.864Z,63.19
2023-02-11T10:22:01.823Z,63.52
2023-02-11T10:27:30.772Z,63.78
2023-02-11T10:32:59.577Z,62.79
2023-02-11T10:38:21.581Z,62.08
2023-02-11T10:43:43.614Z,63.02
2023-02-11T10:49:05.678Z,62.47
2023-02-11T10:54:27.434Z,62.50
2023-02-11T10:59:49.408Z,62.41
2023-02-11T11:05:20.096Z,62.11
2023-02-11T11:10:44.806Z,61.71
2023-02-11T11:16:12.361Z,61.40
2023-02-11T11:21:54.829Z,61.83
2023-02-11T11:27:23.445Z,61.81
2023-02-11T11:32:45.978Z,60.38
2023-02-11T11:38:14.919Z,60.14
2023-02-11T11:43:37.607Z,59.94
2023-02-11T11:49:22.144Z,61.29
2023-02-11T11:54:47.752Z,59.24
2023-02-11T12:00:30.669Z,59.11
2023-02-11T12:06:23.705Z,59.22
2023-02-11T12:12:03.697Z,58.87
2023-02-11T12:17:44.614Z,59.47
2023-02-11T12:23:24.131Z,58.17
2023-02-11T12:29:20.419Z,58.22
2023-02-11T12:34:50.423Z,57.82
2023-02-11T12:40:31.047Z,58.14
2023-02-11T12:46:07.847Z,58.96
2023-02-11T12:51:54.842Z,59.34
2023-02-11T12:57:26.552Z,58.65
2023-02-11T13:03:05.384Z,59.34
2023-02-11T13:08:33.606Z,60.19
2023-02-11T13:14:10.655Z,60.28
2023-02-11T13:19:43.317Z,60.08
2023-02-11T13:25:30.686Z,60.39
2023-02-11T13:31:02.138Z,61.75
2023-02-11T13:36:30.167Z,62.39
2023-02-11T13:42:02.876Z,63.22
2023-02-11T13:47:36.597Z,63.88
2023-02-11T13:53:01.407Z,63.51
2023-02-11T13:58:28.987Z,64.13
2023-02-11T14:04:38.815Z,64.06
2023-02-11T14:10:00.558Z,63.15
2023-02-11T14:15:26.310Z,63.64
2023-02-11T14:20:48.967Z,63.60
2023-02-11T14:26:20.180Z,63.81
2023-02-11T14:32:06.118Z,63.66
2023-02-11T14:37:50.912Z,62.49
2023-02-11T14:43:19.350Z,62.77
2023-02-11T14:48:46.820Z,61.39
2023-02-11T14:54:18.774Z,61.36
2023-02-11T14:59:54.880Z,61.35
2023-02-11T15:05:23.637Z,59.99
2023-02-11T15:10:45.477Z,59.52
2023-02-11T15:16:11.055Z,59.61
2023-02-11T15:21:35.871Z,60.56
2023-02-11T15:27:08.016Z,60.70
2023-02-11T15:32:29.826Z,60.48
2023-02-11T15:37:51.969Z,61.25
2023-02-11T15:43:13.693Z,61.15
2023-02-11T15:48:41.507Z,61.28
2023-02-11T15:54:07.676Z,61.76
2023-02-11T15:59:38.337Z,62.14
2023-02-11T16:05:04.398Z,62.70
2023-02-11T16:10:30.691Z,63.17
2023-02-11T16:15:58.191Z,63.30
2023-02-11T16:21:21.676Z,63.46
2023-02-11T16:26:53.214Z,63.13
2023-02-11T16:32:20.913Z,63.85
2023-02-11T16:37:42.709Z,64.23
2023-02-11T16:43:04.547Z,64.02
2023-02-11T16:48:26.454Z,63.97
2023-02-11T16:53:48.272Z,64.96
2023-02-11T16:59:10.269Z,64.77
2023-02-11T17:04:33.642Z,65.34
2023-02-11T17:09:55.973Z,64.82
2023-02-11T17:15:17.731Z,65.11
2023-02-11T17:20:39.447Z,65.80
2023-02-11T17:26:01.154Z,65.64
2023-02-11T17:31:23.369Z,65.90
2023-02-11T17:36:45.139Z,65.30
2023-02-11T17:42:07.902Z,66.23
2023-02-11T17:47:29.961Z,65.56
2023-02-11T17:52:51.705Z,66.40
2023-02-11T17:58:13.514Z,66.11
2023-02-11T18:03:35.249Z,66.94
2023-02-11T18:08:59.604Z,66.78
2023-02-11T18:14:22.451Z,67.28
2023-02-11T18:19:44.181Z,67.76
2023-02-11T18:25:08.130Z,67.39
2023-02-11T18:30:34.357Z,68.14
2023-02-11T18:35:56.475Z,67.50
2023-02-11T18:41:18.207Z,67.91
2023-02-11T18:46:40.925Z,68.12
2023-02-11T18:52:03.584Z,67.72
2023-02-11T18:57:25.642Z,67.84
2023-02-11T19:02:47.367Z,68.41
2023-02-11T19:08:09.407Z,69.10
2023-02-11T19:13:31.127Z,69.75
2023-02-11T19:18:53.002Z,69.53
2023-02-11T19:24:18.918Z,69.96
2023-02-11T19:29:40.633Z,69.58
2023-02-11T19:35:03.770Z,70.26
2023-02-11T19:40:25.494Z,69.74
2023-02-11T19:45:47.303Z,69.51
2023-02-11T19:51:13.185Z,69.94
2023-02-11T19:56:35.310Z,70.41
2023-02-11T20:01:57.603Z,71.16
2023-02-11T20:07:19.836Z,71.49
2023-02-11T20:12:41.563Z,71.15
2023-02-11T20:18:03.446Z,71.30
2023-02-11T20:23:25.178Z,71.15
2023-02-11T20:28:48.249Z,71.17
2023-02-11T20:34:11.177Z,71.43
2023-02-11T20:39:33.334Z,71.35
2023-02-11T20:44:55.041Z,71.58
2023-02-11T20:50:17.063Z,71.52
2023-02-11T20:55:39.351Z,71.94
2023-02-11T21:01:19.261Z,71.49
2023-02-11T21:06:43.978Z,72.02
2023-02-11T21:12:06.383Z,71.79
2023-02-11T21:17:28.170Z,72.47
2023-02-11T21:22:49.897Z,71.76
2023-02-11T21:28:11.686Z,72.04
2023-02-11T21:33:34.521Z,72.34
2023-02-11T21:38:56.362Z,72.20
2023-02-11T21:44:18.483Z,71.79
2023-02-11T21:49:40.271Z,72.25
2023-02-11T21:55:02.011Z,72.81
2023-02-11T22:00:23.862Z,72.15
2023-02-11T22:05:45.593Z,72.69
2023-02-11T22:11:10.535Z,72.66
2023-02-11T22:16:32.358Z,72.46
2023-02-11T22:21:54.111Z,73.18
2023-02-11T22:27:20.115Z,73.21
2023-02-11T22:32:42.492Z,73.25
2023-02-11T22:38:04.526Z,73.70
2023-02-11T22:43:27.646Z,73.72
2023-02-11T22:48:49.841Z,74.09
2023-02-11T22:54:14.620Z,74.34
2023-02-11T22:59:36.334Z,73.54
2023-02-11T23:04:59.355Z,73.98
2023-02-11T23:10:21.193Z,74.03
2023-02-11T23:15:46.367Z,73.85
2023-02-11T23:21:21.084Z,73.94
2023-02-11T23:26:43.823Z,73.91
2023-02-11T23:32:05.619Z,74.56
2023-02-11T23:37:27.368Z,74.94
2023-02-11T23:42:49.145Z,74.60
2023-02-11T23:48:10.929Z,74.76
2023-02-11T23:53:32.631Z,74.75
2023-02-11T23:58:57.544Z,74.95
